createdAt,value
2022-11-21T00:01:13.932Z,24.02
2022-11-21T00:03:49.067Z,24.40
2022-11-21T00:06:20.349Z,24.42
2022-11-21T00:08:48.230Z,23.60
2022-11-21T00:11:16.825Z,23.38
2022-11-21T00:13:45.602Z,24.58
2022-11-21T00:16:15.756Z,23.95
2022-11-21T00:18:44.289Z,24.17
2022-11-21T00:21:14.531Z,25.02
2022-11-21T00:23:45.809Z,25.38
2022-11-21T00:26:14.857Z,22.45
2022-11-21T00:28:42.893Z,23.95
2022-11-21T00:31:22.179Z,23.40
2022-11-21T00:33:49.844Z,23.48
2022-11-21T00:36:17.511Z,24.02
2022-11-21T00:38:45.008Z,23.73
2022-11-21T00:41:12.528Z,24.80
2022-11-21T00:43:40.223Z,24.05
2022-11-21T00:46:07.710Z,24.20
2022-11-21T00:48:35.139Z,23.00
2022-11-21T00:51:02.797Z,31.35
2022-11-21T00:53:30.561Z,38.63
2022-11-21T00:55:58.244Z,58.80
2022-11-21T00:58:26.128Z,40.72
2022-11-21T01:00:53.854Z,37.45
2022-11-21T01:03:21.621Z,34.50
2022-11-21T01:05:49.105Z,37.42
2022-11-21T01:08:16.624Z,42.45
2022-11-21T01:10:44.067Z,30.33
2022-11-21T01:13:11.576Z,24.73
2022-11-21T01:15:39.018Z,29.08
2022-11-21T01:18:06.520Z,28.48
2022-11-21T01:20:34.168Z,27.77
2022-11-21T01:23:01.689Z,27.70
2022-11-21T01:25:29.169Z,38.10
2022-11-21T01:27:56.690Z,44.15
2022-11-21T01:30:24.299Z,35.80
2022-11-21T01:32:52.572Z,38.42
2022-11-21T01:35:20.034Z,37.00
2022-11-21T01:37:48.740Z,35.13
2022-11-21T01:40:16.960Z,32.70
2022-11-21T01:43:04.437Z,33.28
2022-11-21T01:45:55.175Z,28.95
2022-11-21T01:48:46.048Z,25.38
2022-11-21T01:51:24.731Z,25.73
2022-11-21T01:54:11.635Z,23.77
2022-11-21T01:56:58.790Z,24.52
2022-11-21T01:59:30.893Z,25.00
2022-11-21T02:02:01.624Z,24.20
2022-11-21T02:04:32.064Z,26.15
2022-11-21T02:07:03.863Z,23.58
2022-11-21T02:09:33.409Z,23.65
2022-11-21T02:12:18.464Z,22.90
2022-11-21T02:14:47.508Z,24.27
2022-11-21T02:17:14.923Z,22.65
2022-11-21T02:19:58.542Z,23.05
2022-11-21T02:22:49.350Z,23.13
2022-11-21T02:25:20.827Z,24.52
2022-11-21T02:27:51.271Z,24.55
2022-11-21T02:30:19.379Z,25.35
2022-11-21T02:32:47.298Z,26.20
2022-11-21T02:35:19.382Z,35.17
2022-11-21T02:37:53.149Z,30.80
2022-11-21T02:40:31.973Z,25.05
2022-11-21T02:43:06.759Z,22.88
2022-11-21T02:45:41.981Z,21.75
2022-11-21T02:48:09.992Z,21.63
2022-11-21T02:50:39.623Z,20.67
2022-11-21T02:53:09.623Z,21.83
2022-11-21T02:55:38.188Z,20.48
2022-11-21T02:58:06.646Z,21.10
2022-11-21T03:00:36.195Z,21.52
2022-11-21T03:03:04.359Z,20.75
2022-11-21T03:05:32.298Z,21.25
2022-11-21T03:07:59.775Z,20.55
2022-11-21T03:10:27.692Z,21.92
2022-11-21T03:13:01.408Z,20.95
2022-11-21T03:15:31.803Z,20.52
2022-11-21T03:18:03.063Z,21.10
2022-11-21T03:20:31.951Z,21.38
2022-11-21T03:22:59.519Z,20.83
2022-11-21T03:25:27.144Z,20.33
2022-11-21T03:27:55.231Z,21.10
2022-11-21T03:30:25.010Z,21.02
2022-11-21T03:32:56.740Z,22.33
2022-11-21T03:35:25.738Z,21.80
2022-11-21T03:37:53.615Z,20.52
2022-11-21T03:40:21.142Z,20.63
2022-11-21T03:42:48.654Z,20.73
2022-11-21T03:45:16.300Z,21.48
2022-11-21T03:47:49.621Z,21.80
2022-11-21T03:50:19.156Z,20.15
2022-11-21T03:52:46.839Z,19.90
2022-11-21T03:55:15.350Z,20.25
2022-11-21T03:57:42.891Z,21.23
2022-11-21T04:00:11.055Z,20.05
2022-11-21T04:02:38.579Z,21.42
2022-11-21T04:07:51.031Z,20.58
2022-11-21T04:10:19.427Z,20.80
2022-11-21T04:12:47.266Z,21.92
2022-11-21T04:15:14.953Z,21.75
2022-11-21T04:17:42.515Z,21.38
2022-11-21T04:20:10.831Z,23.27
2022-11-21T04:22:38.444Z,21.90
2022-11-21T04:25:06.636Z,21.38
2022-11-21T04:27:34.137Z,21.25
2022-11-21T04:30:01.679Z,20.80
2022-11-21T04:32:29.294Z,22.05
2022-11-21T04:34:56.767Z,21.13
2022-11-21T04:37:24.153Z,19.50
2022-11-21T04:39:51.688Z,20.55
2022-11-21T04:42:19.211Z,20.77
2022-11-21T04:44:46.814Z,29.08
2022-11-21T04:47:14.261Z,27.27
2022-11-21T04:49:42.106Z,25.77
2022-11-21T04:52:09.627Z,24.88
2022-11-21T04:54:37.157Z,26.05
2022-11-21T04:57:04.641Z,27.00
2022-11-21T04:59:32.217Z,20.98
2022-11-21T05:01:59.698Z,20.38
2022-11-21T05:04:27.315Z,20.27
2022-11-21T05:06:54.941Z,21.58
2022-11-21T05:09:22.719Z,20.88
2022-11-21T05:12:08.481Z,20.73
2022-11-21T05:14:59.927Z,20.15
2022-11-21T05:17:46.595Z,19.98
2022-11-21T05:20:20.787Z,18.95
2022-11-21T05:23:00.403Z,20.63
2022-11-21T05:25:37.282Z,20.17
2022-11-21T05:28:08.688Z,18.48
2022-11-21T05:30:39.019Z,18.65
2022-11-21T05:33:12.068Z,19.25
2022-11-21T05:36:13.183Z,21.27
2022-11-21T05:39:00.468Z,21.23
2022-11-21T05:41:31.984Z,21.10
2022-11-21T05:44:06.597Z,22.48
2022-11-21T05:46:39.658Z,22.92
2022-11-21T05:49:10.590Z,21.77
2022-11-21T05:51:42.840Z,23.20
2022-11-21T05:54:17.690Z,21.15
2022-11-21T05:56:51.274Z,18.20
2022-11-21T06:19:24.484Z,20.77
2022-11-21T06:21:52.332Z,25.00
2022-11-21T06:24:22.614Z,22.30
2022-11-21T06:26:50.406Z,17.13
2022-11-21T06:29:18.040Z,16.60
2022-11-21T06:31:48.841Z,14.90
2022-11-21T06:34:16.885Z,14.25
2022-11-21T06:36:44.962Z,13.05
2022-11-21T06:39:12.839Z,13.68
2022-11-21T06:41:40.544Z,13.73
2022-11-21T06:44:08.606Z,13.73
2022-11-21T06:46:36.514Z,13.98
2022-11-21T06:49:10.453Z,13.20
2022-11-21T06:51:44.413Z,13.50
2022-11-21T06:54:29.391Z,12.88
2022-11-21T06:57:00.053Z,12.77
2022-11-21T06:59:36.811Z,12.73
2022-11-21T07:02:17.810Z,13.57
2022-11-21T07:04:54.468Z,13.20
2022-11-21T07:07:33.449Z,13.73
2022-11-21T07:10:01.220Z,16.15
2022-11-21T07:12:47.709Z,15.27
2022-11-21T07:15:55.845Z,16.40
2022-11-21T07:18:23.560Z,16.00
2022-11-21T07:20:51.308Z,15.73
2022-11-21T07:23:21.980Z,15.85
2022-11-21T07:25:50.100Z,19.38
2022-11-21T07:28:17.807Z,16.17
2022-11-21T07:30:45.708Z,18.80
2022-11-21T07:33:13.413Z,17.88
2022-11-21T07:35:43.652Z,18.20
2022-11-21T07:38:13.645Z,17.00
2022-11-21T07:40:41.315Z,14.75
2022-11-21T07:43:11.324Z,15.07
2022-11-21T07:45:39.122Z,15.18
2022-11-21T07:48:08.140Z,13.75
2022-11-21T07:50:36.044Z,14.38
2022-11-21T07:53:06.276Z,15.50
2022-11-21T07:55:40.590Z,14.43
2022-11-21T07:58:11.848Z,16.00
2022-11-21T08:00:42.972Z,15.60
2022-11-21T08:03:12.584Z,15.18
2022-11-21T08:05:42.577Z,17.33
2022-11-21T08:08:12.351Z,18.02
2022-11-21T08:10:42.682Z,20.45
2022-11-21T08:13:11.496Z,20.88
2022-11-21T08:15:39.108Z,18.45
2022-11-21T08:18:11.570Z,17.58
2022-11-21T08:20:39.976Z,18.73
2022-11-21T08:23:07.667Z,21.27
2022-11-21T08:25:37.977Z,24.75
2022-11-21T08:28:06.113Z,25.27
2022-11-21T08:30:37.388Z,25.30
2022-11-21T08:33:07.137Z,23.85
2022-11-21T08:35:37.912Z,23.15
2022-11-21T08:38:06.993Z,24.13
2022-11-21T08:40:35.709Z,23.33
2022-11-21T08:43:07.614Z,22.52
2022-11-21T08:45:36.627Z,24.08
2022-11-21T08:48:05.076Z,24.60
2022-11-21T08:50:32.564Z,23.73
2022-11-21T08:53:02.094Z,24.13
2022-11-21T08:55:30.871Z,24.17
2022-11-21T08:57:58.679Z,23.40
2022-11-21T09:00:28.293Z,24.25
2022-11-21T09:02:55.829Z,23.25
2022-11-21T09:05:28.067Z,25.08
2022-11-21T09:07:58.903Z,24.70
2022-11-21T09:10:29.254Z,24.88
2022-11-21T09:13:00.138Z,23.75
2022-11-21T09:15:48.053Z,24.48
2022-11-21T09:18:15.558Z,23.70
2022-11-21T09:20:44.958Z,23.60
2022-11-21T09:23:15.675Z,23.77
2022-11-21T09:25:44.585Z,24.30
2022-11-21T09:28:14.832Z,24.08
2022-11-21T09:30:43.033Z,21.85
2022-11-21T09:33:13.412Z,22.75
2022-11-21T09:35:41.116Z,21.58
2022-11-21T09:38:10.005Z,20.95
2022-11-21T09:40:43.455Z,21.75
2022-11-21T09:43:29.017Z,24.55
2022-11-21T09:46:10.243Z,24.95
2022-11-21T09:49:00.664Z,24.52
2022-11-21T09:51:31.798Z,27.33
2022-11-21T09:54:12.012Z,29.58
2022-11-21T09:56:43.812Z,33.70
2022-11-21T09:59:42.014Z,34.67
2022-11-21T10:02:23.203Z,21.25
2022-11-21T10:04:52.043Z,20.55
2022-11-21T10:07:26.251Z,22.05
2022-11-21T10:10:31.236Z,22.23
2022-11-21T10:13:31.700Z,24.30
2022-11-21T10:16:21.187Z,24.50
2022-11-21T10:19:12.527Z,26.25
2022-11-21T10:22:15.491Z,27.40
2022-11-21T10:25:20.645Z,27.13
2022-11-21T10:27:55.890Z,27.10
2022-11-21T10:30:23.570Z,28.63
2022-11-21T10:32:56.797Z,28.15
2022-11-21T10:35:29.446Z,31.00
2022-11-21T10:38:01.342Z,30.25
2022-11-21T10:41:07.212Z,30.30
2022-11-21T10:44:12.418Z,31.90
2022-11-21T10:46:39.776Z,32.00
2022-11-21T10:49:12.557Z,33.17
2022-11-21T10:51:50.587Z,32.42
2022-11-21T10:54:33.249Z,32.35
2022-11-21T10:57:00.700Z,32.05
2022-11-21T10:59:31.361Z,33.35
2022-11-21T11:02:03.697Z,35.30
2022-11-21T11:04:41.661Z,31.48
2022-11-21T11:07:25.104Z,32.70
2022-11-21T11:09:53.615Z,32.00
2022-11-21T11:12:24.133Z,31.77
2022-11-21T11:14:54.470Z,32.45
2022-11-21T11:17:31.301Z,33.35
2022-11-21T11:20:30.359Z,33.78
2022-11-21T11:22:58.030Z,33.70
2022-11-21T11:25:25.702Z,36.80
2022-11-21T11:27:54.340Z,35.25
2022-11-21T11:30:21.822Z,36.22
2022-11-21T11:32:49.279Z,36.20
2022-11-21T11:35:16.748Z,36.40
2022-11-21T11:38:06.047Z,37.28
2022-11-21T11:40:41.033Z,35.65
2022-11-21T11:43:26.890Z,34.22
2022-11-21T11:46:31.812Z,35.08
2022-11-21T11:49:20.374Z,35.50
2022-11-21T11:51:57.237Z,38.05
2022-11-21T11:54:32.892Z,37.10
2022-11-21T11:59:40.065Z,37.95
2022-11-21T12:02:22.223Z,36.95
2022-11-21T12:05:04.075Z,38.65
2022-11-21T12:08:44.345Z,37.67
2022-11-21T12:11:34.133Z,37.45
2022-11-21T12:19:15.948Z,40.55
2022-11-21T12:21:43.810Z,40.13
2022-11-21T12:32:36.454Z,41.53
2022-11-21T13:17:52.986Z,42.63
2022-11-21T13:20:24.330Z,43.03
2022-11-21T13:22:57.473Z,41.90
2022-11-21T13:31:23.788Z,43.13
2022-11-21T13:33:52.068Z,41.92
2022-11-21T13:37:11.209Z,43.08
2022-11-21T13:39:39.641Z,42.50
2022-11-21T13:43:03.661Z,41.88
2022-11-21T13:45:45.568Z,40.78
2022-11-21T13:48:37.200Z,42.28
2022-11-21T13:51:18.886Z,43.60
2022-11-21T13:53:58.657Z,44.92
2022-11-21T13:57:05.364Z,46.60
2022-11-21T13:59:37.881Z,48.33
2022-11-21T14:02:14.428Z,47.10
2022-11-21T14:05:01.653Z,45.55
2022-11-21T14:07:33.257Z,46.88
2022-11-21T14:10:18.066Z,48.13
2022-11-21T14:12:50.030Z,49.15
2022-11-21T14:15:55.473Z,48.72
2022-11-21T14:18:27.716Z,50.65
2022-11-21T14:21:01.653Z,50.40
2022-11-21T14:23:48.099Z,50.70
2022-11-21T14:26:20.250Z,49.65
2022-11-21T14:28:48.674Z,48.90
2022-11-21T14:31:22.648Z,47.60
2022-11-21T14:33:57.981Z,48.88
2022-11-21T14:36:31.651Z,48.13
2022-11-21T14:39:37.984Z,48.63
2022-11-21T14:41:57.820Z,49.50
2022-11-21T14:44:26.782Z,50.42
2022-11-21T14:47:19.795Z,52.65
2022-11-21T14:49:59.660Z,50.80
2022-11-21T14:52:33.752Z,50.33
2022-11-21T15:21:36.591Z,57.75
2022-11-21T15:24:17.859Z,55.83
2022-11-21T15:26:47.196Z,53.80
2022-11-21T15:29:21.010Z,53.92
2022-11-21T15:35:00.097Z,54.85
2022-11-21T15:37:27.915Z,51.90
2022-11-21T15:39:55.417Z,54.17
2022-11-21T15:42:31.705Z,58.08
2022-11-21T15:45:19.888Z,55.70
2022-11-21T15:47:49.032Z,53.80
2022-11-21T15:50:17.027Z,53.65
2022-11-21T15:52:49.367Z,56.17
2022-11-21T15:55:26.524Z,56.40
2022-11-21T15:57:13.218Z,55.08
2022-11-21T15:57:54.053Z,60.22
2022-11-21T16:00:21.433Z,63.17
2022-11-21T16:02:48.913Z,59.92
2022-11-21T16:05:16.538Z,59.75
2022-11-21T16:07:44.292Z,58.80
2022-11-21T16:10:19.888Z,60.00
2022-11-21T16:12:54.952Z,59.38
2022-11-21T16:15:22.701Z,59.20
2022-11-21T16:18:42.834Z,60.75
2022-11-21T16:21:12.067Z,58.72
2022-11-21T16:23:39.830Z,59.13
2022-11-21T16:26:08.853Z,60.10
2022-11-21T16:28:37.628Z,61.40
2022-11-21T16:31:07.111Z,60.08
2022-11-21T16:33:35.852Z,58.25
2022-11-21T16:36:03.404Z,55.08
2022-11-21T16:38:31.952Z,54.20
2022-11-21T16:41:01.682Z,53.35
2022-11-21T16:46:44.205Z,44.70
2022-11-21T16:49:42.938Z,43.30
2022-11-21T16:52:11.631Z,42.03
2022-11-21T16:54:39.434Z,41.00
2022-11-21T16:57:07.871Z,37.72
2022-11-21T16:59:36.692Z,36.25
2022-11-21T17:02:05.885Z,35.90
2022-11-21T17:04:49.347Z,34.70
2022-11-21T17:07:19.959Z,33.42
2022-11-21T17:09:48.919Z,32.33
2022-11-21T17:12:33.592Z,31.02
2022-11-21T17:15:03.269Z,29.50
2022-11-21T17:17:33.112Z,28.27
2022-11-21T17:20:03.890Z,25.92
2022-11-21T17:22:42.569Z,27.30
2022-11-21T17:32:41.746Z,23.48
2022-11-21T17:35:11.931Z,23.60
2022-11-21T17:37:40.797Z,23.60
2022-11-21T17:40:12.255Z,23.08
2022-11-21T17:43:30.956Z,21.45
2022-11-21T17:46:09.305Z,23.20
2022-11-21T17:48:38.139Z,22.02
2022-11-21T17:51:09.489Z,22.23
2022-11-21T17:54:17.904Z,22.00
2022-11-21T17:57:49.877Z,21.73
2022-11-21T18:01:32.326Z,22.40
2022-11-21T18:08:56.260Z,22.90
2022-11-21T18:15:41.676Z,21.95
2022-11-21T18:18:31.529Z,21.83
2022-11-21T18:21:24.092Z,21.85
2022-11-21T18:24:04.855Z,20.58
2022-11-21T18:26:35.837Z,21.42
2022-11-21T18:52:47.708Z,20.67
2022-11-21T19:20:18.925Z,19.23
2022-11-21T19:22:49.144Z,20.25
2022-11-21T19:25:19.790Z,20.00
2022-11-21T19:27:50.043Z,21.17
2022-11-21T19:30:17.930Z,20.38
2022-11-21T19:32:45.803Z,20.77
2022-11-21T19:35:14.272Z,19.90
2022-11-21T19:37:49.261Z,20.13
2022-11-21T19:40:17.529Z,21.80
2022-11-21T19:42:47.678Z,21.70
2022-11-21T19:45:18.132Z,22.05
2022-11-21T19:47:57.205Z,21.02
2022-11-21T19:50:27.118Z,19.52
2022-11-21T19:53:01.854Z,21.00
2022-11-21T19:55:36.042Z,21.08
2022-11-21T19:58:03.997Z,21.13
2022-11-21T20:00:34.164Z,21.45
2022-11-21T20:03:02.098Z,20.88
2022-11-21T20:05:31.031Z,20.38
2022-11-21T20:08:04.933Z,20.38
2022-11-21T20:11:04.328Z,21.08
2022-11-21T20:19:11.807Z,20.83
2022-11-21T20:22:21.576Z,20.33
2022-11-21T20:30:07.708Z,21.48
2022-11-21T20:33:11.108Z,21.85
2022-11-21T20:35:46.570Z,20.35
2022-11-21T20:39:04.195Z,20.65
2022-11-21T20:41:20.037Z,20.08
2022-11-21T20:46:50.923Z,19.77
2022-11-21T20:49:21.132Z,20.33
2022-11-21T20:54:45.399Z,20.73
2022-11-21T20:57:25.485Z,20.75
2022-11-21T20:59:56.420Z,20.38
2022-11-21T21:02:26.655Z,20.67
2022-11-21T21:04:54.247Z,19.33
2022-11-21T21:07:22.101Z,20.48
2022-11-21T21:09:50.088Z,21.30
2022-11-21T21:12:17.788Z,21.45
2022-11-21T21:14:45.622Z,21.75
2022-11-21T21:17:13.355Z,21.85
2022-11-21T21:19:41.091Z,21.05
2022-11-21T21:22:09.227Z,21.83
2022-11-21T21:24:36.839Z,21.38
2022-11-21T21:27:08.172Z,21.60
2022-11-21T21:29:35.910Z,21.35
2022-11-21T21:32:03.703Z,22.33
2022-11-21T21:34:32.982Z,20.88
2022-11-21T21:53:38.841Z,19.15
2022-11-21T22:20:59.471Z,17.27
2022-11-21T22:40:18.125Z,14.45
2022-11-21T22:58:55.302Z,13.32
2022-11-21T23:11:12.804Z,12.98
2022-11-21T23:31:17.787Z,12.10
